sensor_id;sensor_type;location;lat;lon;timestamp;pressure;altitude;pressure_sealevel;temperature;humidity
83716;BME280;73698;51.138;6.950;2024-01-16T11:12:09;100508.25;;;0.89;72.79
83716;BME280;73698;51.138;6.950;2024-01-16T11:14:37;100506.63;;;0.85;73.35
83716;BME280;73698;51.138;6.950;2024-01-16T11:17:03;100509.31;;;0.83;74.07
83716;BME280;73698;51.138;6.950;2024-01-16T11:19:30;100504.94;;;0.82;74.56
83716;BME280;73698;51.138;6.950;2024-01-16T11:21:57;100509.31;;;0.83;73.76
83716;BME280;73698;51.138;6.950;2024-01-16T11:24:23;100499.56;;;0.85;72.92
83716;BME280;73698;51.138;6.950;2024-01-16T11:26:48;100497.72;;;0.87;73.79
83716;BME280;73698;51.138;6.950;2024-01-16T11:31:51;100496.91;;;0.85;73.46
83716;BME280;73698;51.138;6.950;2024-01-16T11:37:12;100503.91;;;0.86;72.16
83716;BME280;73698;51.138;6.950;2024-01-16T11:39:38;100510.00;;;0.88;72.60
83716;BME280;73698;51.138;6.950;2024-01-16T11:42:04;100524.22;;;0.86;73.00
83716;BME280;73698;51.138;6.950;2024-01-16T11:44:48;100521.63;;;0.84;72.09
83716;BME280;73698;51.138;6.950;2024-01-16T11:47:20;100509.38;;;0.82;72.53
83716;BME280;73698;51.138;6.950;2024-01-16T11:49:50;100510.22;;;0.82;72.26
83716;BME280;73698;51.138;6.950;2024-01-16T11:52:42;100491.69;;;0.82;72.87
83716;BME280;73698;51.138;6.950;2024-01-16T11:55:30;100486.41;;;0.82;72.83
83716;BME280;73698;51.138;6.950;2024-01-16T11:58:39;100480.28;;;0.80;70.75
83716;BME280;73698;51.138;6.950;2024-01-16T12:01:10;100481.25;;;0.78;72.05
83716;BME280;73698;51.138;6.950;2024-01-16T12:03:37;100475.22;;;0.72;72.88
83716;BME280;73698;51.138;6.950;2024-01-16T12:06:03;100476.31;;;0.67;71.89
83716;BME280;73698;51.138;6.950;2024-01-16T12:08:31;100484.38;;;0.62;73.40
83716;BME280;73698;51.138;6.950;2024-01-16T12:10:57;100470.31;;;0.60;72.28
83716;BME280;73698;51.138;6.950;2024-01-16T12:13:23;100465.94;;;0.59;73.39
83716;BME280;73698;51.138;6.950;2024-01-16T12:15:48;100466.88;;;0.58;71.66
83716;BME280;73698;51.138;6.950;2024-01-16T12:18:24;100453.75;;;0.55;71.96
83716;BME280;73698;51.138;6.950;2024-01-16T12:20:49;100445.03;;;0.52;72.26
83716;BME280;73698;51.138;6.950;2024-01-16T12:23:16;100443.34;;;0.49;72.77
83716;BME280;73698;51.138;6.950;2024-01-16T12:25:41;100439.81;;;0.48;72.29
83716;BME280;73698;51.138;6.950;2024-01-16T12:28:07;100437.16;;;0.50;72.80
83716;BME280;73698;51.138;6.950;2024-01-16T12:30:37;100443.25;;;0.52;72.58
83716;BME280;73698;51.138;6.950;2024-01-16T12:33:11;100433.53;;;0.53;72.05
83716;BME280;73698;51.138;6.950;2024-01-16T12:35:42;100429.16;;;0.52;73.41
83716;BME280;73698;51.138;6.950;2024-01-16T12:38:09;100426.38;;;0.56;72.96
83716;BME280;73698;51.138;6.950;2024-01-16T12:40:36;100428.16;;;0.56;72.31
83716;BME280;73698;51.138;6.950;2024-01-16T12:43:05;100419.28;;;0.57;72.05
83716;BME280;73698;51.138;6.950;2024-01-16T12:45:31;100422.72;;;0.60;72.48
83716;BME280;73698;51.138;6.950;2024-01-16T12:47:58;100413.75;;;0.64;71.99
83716;BME280;73698;51.138;6.950;2024-01-16T12:50:26;100415.38;;;0.68;70.73
83716;BME280;73698;51.138;6.950;2024-01-16T12:53:05;100414.63;;;0.65;70.87
83716;BME280;73698;51.138;6.950;2024-01-16T12:55:32;100409.44;;;0.62;71.54
83716;BME280;73698;51.138;6.950;2024-01-16T12:58:17;100408.53;;;0.63;71.78
83716;BME280;73698;51.138;6.950;2024-01-16T13:00:47;100412.03;;;0.63;71.56
83716;BME280;73698;51.138;6.950;2024-01-16T13:03:17;100412.03;;;0.63;71.22
83716;BME280;73698;51.138;6.950;2024-01-16T13:05:43;100403.25;;;0.61;71.12
83716;BME280;73698;51.138;6.950;2024-01-16T13:08:09;100410.34;;;0.61;71.64
83716;BME280;73698;51.138;6.950;2024-01-16T13:10:34;100405.19;;;0.56;72.62
83716;BME280;73698;51.138;6.950;2024-01-16T13:13:21;100410.47;;;0.58;72.32
83716;BME280;73698;51.138;6.950;2024-01-16T13:15:47;100402.53;;;0.58;72.49
83716;BME280;73698;51.138;6.950;2024-01-16T13:18:23;100400.78;;;0.57;71.90
83716;BME280;73698;51.138;6.950;2024-01-16T13:20:50;100404.28;;;0.57;72.40
83716;BME280;73698;51.138;6.950;2024-01-16T13:23:16;100392.84;;;0.57;72.84
83716;BME280;73698;51.138;6.950;2024-01-16T13:25:46;100395.53;;;0.55;72.21
83716;BME280;73698;51.138;6.950;2024-01-16T13:28:19;100397.25;;;0.56;71.87
83716;BME280;73698;51.138;6.950;2024-01-16T13:30:46;100390.19;;;0.57;71.33
83716;BME280;73698;51.138;6.950;2024-01-16T13:33:12;100389.25;;;0.59;71.36
83716;BME280;73698;51.138;6.950;2024-01-16T13:35:40;100387.50;;;0.58;70.31
83716;BME280;73698;51.138;6.950;2024-01-16T13:38:06;100382.31;;;0.55;71.37
83716;BME280;73698;51.138;6.950;2024-01-16T13:40:34;100383.28;;;0.53;72.05
83716;BME280;73698;51.138;6.950;2024-01-16T13:43:00;100382.47;;;0.51;71.66
83716;BME280;73698;51.138;6.950;2024-01-16T13:45:26;100389.66;;;0.45;73.04
83716;BME280;73698;51.138;6.950;2024-01-16T13:47:51;100387.03;;;0.45;72.31
83716;BME280;73698;51.138;6.950;2024-01-16T13:50:17;100386.13;;;0.46;71.30
83716;BME280;73698;51.138;6.950;2024-01-16T13:52:43;100378.06;;;0.49;71.45
83716;BME280;73698;51.138;6.950;2024-01-16T13:55:09;100371.81;;;0.52;71.10
83716;BME280;73698;51.138;6.950;2024-01-16T13:57:34;100370.91;;;0.53;70.17
83716;BME280;73698;51.138;6.950;2024-01-16T14:00:05;100378.91;;;0.52;70.37
83716;BME280;73698;51.138;6.950;2024-01-16T14:02:31;100371.81;;;0.52;70.74
83716;BME280;73698;51.138;6.950;2024-01-16T14:04:56;100363.91;;;0.52;71.84
83716;BME280;73698;51.138;6.950;2024-01-16T14:07:22;100364.75;;;0.53;70.73
83716;BME280;73698;51.138;6.950;2024-01-16T14:09:47;100361.25;;;0.52;71.89
83716;BME280;73698;51.138;6.950;2024-01-16T14:12:13;100359.63;;;0.48;71.76
83716;BME280;73698;51.138;6.950;2024-01-16T14:14:42;100367.63;;;0.46;70.65
83716;BME280;73698;51.138;6.950;2024-01-16T14:17:08;100364.81;;;0.51;70.66
83716;BME280;73698;51.138;6.950;2024-01-16T14:19:36;100361.44;;;0.46;70.77
83716;BME280;73698;51.138;6.950;2024-01-16T14:22:03;100363.19;;;0.47;70.24
83716;BME280;73698;51.138;6.950;2024-01-16T14:24:29;100357.03;;;0.46;71.28
83716;BME280;73698;51.138;6.950;2024-01-16T14:26:54;100361.59;;;0.41;71.69
83716;BME280;73698;51.138;6.950;2024-01-16T14:29:21;100354.66;;;0.37;70.59
83716;BME280;73698;51.138;6.950;2024-01-16T14:31:48;100353.75;;;0.38;69.78
83716;BME280;73698;51.138;6.950;2024-01-16T14:34:14;100347.72;;;0.35;70.15
83716;BME280;73698;51.138;6.950;2024-01-16T14:36:41;100357.53;;;0.31;70.58
83716;BME280;73698;51.138;6.950;2024-01-16T14:39:06;100352.41;;;0.25;70.81
83716;BME280;73698;51.138;6.950;2024-01-16T14:41:41;100350.00;;;0.17;71.00
83716;BME280;73698;51.138;6.950;2024-01-16T14:44:09;100348.38;;;0.13;70.26
83716;BME280;73698;51.138;6.950;2024-01-16T14:46:35;100357.31;;;0.09;69.67
83716;BME280;73698;51.138;6.950;2024-01-16T14:49:00;100354.69;;;0.08;70.58
83716;BME280;73698;51.138;6.950;2024-01-16T14:51:27;100349.63;;;0.02;70.27
83716;BME280;73698;51.138;6.950;2024-01-16T14:53:52;100353.19;;;0.01;69.60
83716;BME280;73698;51.138;6.950;2024-01-16T14:56:18;100343.50;;;-0.01;69.36
83716;BME280;73698;51.138;6.950;2024-01-16T14:58:44;100344.41;;;-0.02;69.66
83716;BME280;73698;51.138;6.950;2024-01-16T15:01:10;100341.06;;;-0.07;68.90
83716;BME280;73698;51.138;6.950;2024-01-16T15:03:36;100337.66;;;-0.12;70.18
83716;BME280;73698;51.138;6.950;2024-01-16T15:06:01;100336.09;;;-0.17;70.03
83716;BME280;73698;51.138;6.950;2024-01-16T15:08:28;100339.69;;;-0.20;70.20
83716;BME280;73698;51.138;6.950;2024-01-16T15:10:57;100327.47;;;-0.24;70.64
83716;BME280;73698;51.138;6.950;2024-01-16T15:13:25;100324.16;;;-0.31;70.53
83716;BME280;73698;51.138;6.950;2024-01-16T15:15:50;100321.63;;;-0.34;71.76
83716;BME280;73698;51.138;6.950;2024-01-16T15:18:17;100320.00;;;-0.39;71.99
83716;BME280;73698;51.138;6.950;2024-01-16T15:20:42;100323.69;;;-0.45;72.02
83716;BME280;73698;51.138;6.950;2024-01-16T15:23:08;100315.00;;;-0.48;71.04
83716;BME280;73698;51.138;6.950;2024-01-16T15:25:33;100316.78;;;-0.49;72.11
83716;BME280;73698;51.138;6.950;2024-01-16T15:27:58;100318.72;;;-0.56;72.15
83716;BME280;73698;51.138;6.950;2024-01-16T15:30:24;100316.22;;;-0.60;72.13
83716;BME280;73698;51.138;6.950;2024-01-16T15:32:56;100315.50;;;-0.67;72.87
83716;BME280;73698;51.138;6.950;2024-01-16T15:35:22;100321.88;;;-0.74;72.48
83716;BME280;73698;51.138;6.950;2024-01-16T15:37:48;100332.47;;;-0.76;73.04
83716;BME280;73698;51.138;6.950;2024-01-16T15:40:14;100336.97;;;-0.79;72.79
83716;BME280;73698;51.138;6.950;2024-01-16T15:42:40;100344.97;;;-0.82;72.29
83716;BME280;73698;51.138;6.950;2024-01-16T15:45:06;100352.03;;;-0.83;72.71
83716;BME280;73698;51.138;6.950;2024-01-16T15:47:32;100346.91;;;-0.89;72.40
83716;BME280;73698;51.138;6.950;2024-01-16T15:49:59;100340.97;;;-0.97;73.35
83716;BME280;73698;51.138;6.950;2024-01-16T15:52:24;100346.44;;;-1.05;74.41
83716;BME280;73698;51.138;6.950;2024-01-16T15:54:49;100344.88;;;-1.12;73.75
83716;BME280;73698;51.138;6.950;2024-01-16T15:57:15;100340.56;;;-1.14;73.29
83716;BME280;73698;51.138;6.950;2024-01-16T15:59:41;100345.97;;;-1.20;73.75
83716;BME280;73698;51.138;6.950;2024-01-16T16:02:07;100349.66;;;-1.26;74.01
83716;BME280;73698;51.138;6.950;2024-01-16T16:04:34;100362.97;;;-1.32;73.58
83716;BME280;73698;51.138;6.950;2024-01-16T16:06:59;100365.66;;;-1.34;73.21
83716;BME280;73698;51.138;6.950;2024-01-16T16:09:25;100363.16;;;-1.40;74.04
83716;BME280;73698;51.138;6.950;2024-01-16T16:11:50;100368.50;;;-1.43;75.44
83716;BME280;73698;51.138;6.950;2024-01-16T16:14:17;100362.53;;;-1.50;74.63
83716;BME280;73698;51.138;6.950;2024-01-16T16:16:44;100359.16;;;-1.56;74.67
83716;BME280;73698;51.138;6.950;2024-01-16T16:19:12;100352.31;;;-1.63;74.40
83716;BME280;73698;51.138;6.950;2024-01-16T16:21:37;100362.16;;;-1.72;74.52
83716;BME280;73698;51.138;6.950;2024-01-16T16:24:04;100366.69;;;-1.77;74.78
83716;BME280;73698;51.138;6.950;2024-01-16T16:26:34;100373.00;;;-1.85;75.33
83716;BME280;73698;51.138;6.950;2024-01-16T16:29:00;100377.56;;;-1.92;75.20
83716;BME280;73698;51.138;6.950;2024-01-16T16:31:28;100384.72;;;-1.99;76.21
83716;BME280;73698;51.138;6.950;2024-01-16T16:33:59;100384.03;;;-2.07;76.15
83716;BME280;73698;51.138;6.950;2024-01-16T16:36:25;100380.66;;;-2.13;76.21
83716;BME280;73698;51.138;6.950;2024-01-16T16:38:50;100387.78;;;-2.18;76.55
83716;BME280;73698;51.138;6.950;2024-01-16T16:41:16;100377.34;;;-2.23;76.19
83716;BME280;73698;51.138;6.950;2024-01-16T16:43:42;100374.75;;;-2.25;77.09
83716;BME280;73698;51.138;6.950;2024-01-16T16:46:07;100368.69;;;-2.28;77.45
83716;BME280;73698;51.138;6.950;2024-01-16T16:48:32;100368.78;;;-2.33;77.13
83716;BME280;73698;51.138;6.950;2024-01-16T16:50:58;100372.31;;;-2.35;77.69
83716;BME280;73698;51.138;6.950;2024-01-16T16:53:24;100365.38;;;-2.38;78.30
83716;BME280;73698;51.138;6.950;2024-01-16T16:55:49;100364.59;;;-2.43;77.58
83716;BME280;73698;51.138;6.950;2024-01-16T16:58:14;100362.91;;;-2.46;78.24
83716;BME280;73698;51.138;6.950;2024-01-16T17:00:40;100355.06;;;-2.50;78.78
83716;BME280;73698;51.138;6.950;2024-01-16T17:03:05;100351.63;;;-2.54;78.79
83716;BME280;73698;51.138;6.950;2024-01-16T17:05:31;100348.25;;;-2.59;78.98
83716;BME280;73698;51.138;6.950;2024-01-16T17:07:56;100348.34;;;-2.63;79.38
83716;BME280;73698;51.138;6.950;2024-01-16T17:10:22;100362.41;;;-2.66;79.43
83716;BME280;73698;51.138;6.950;2024-01-16T17:12:47;100357.22;;;-2.69;79.69
83716;BME280;73698;51.138;6.950;2024-01-16T17:15:13;100360.78;;;-2.72;79.76
83716;BME280;73698;51.138;6.950;2024-01-16T17:17:40;100357.28;;;-2.74;79.14
83716;BME280;73698;51.138;6.950;2024-01-16T17:20:07;100352.03;;;-2.74;79.80
83716;BME280;73698;51.138;6.950;2024-01-16T17:22:39;100353.84;;;-2.76;80.03
83716;BME280;73698;51.138;6.950;2024-01-16T17:27:32;100345.13;;;-2.79;80.23
83716;BME280;73698;51.138;6.950;2024-01-16T17:29:57;100335.53;;;-2.82;79.71
83716;BME280;73698;51.138;6.950;2024-01-16T17:32:23;100339.13;;;-2.84;79.87
83716;BME280;73698;51.138;6.950;2024-01-16T17:34:48;100331.22;;;-2.86;80.34
83716;BME280;73698;51.138;6.950;2024-01-16T17:37:15;100323.38;;;-2.87;80.20
83716;BME280;73698;51.138;6.950;2024-01-16T17:39:40;100334.75;;;-2.87;80.14
83716;BME280;73698;51.138;6.950;2024-01-16T17:42:06;100328.66;;;-2.89;80.23
83716;BME280;73698;51.138;6.950;2024-01-16T17:44:31;100327.84;;;-2.92;80.22
83716;BME280;73698;51.138;6.950;2024-01-16T17:47:02;100324.38;;;-2.95;80.55
83716;BME280;73698;51.138;6.950;2024-01-16T17:49:30;100320.91;;;-2.95;80.66
83716;BME280;73698;51.138;6.950;2024-01-16T17:51:55;100320.91;;;-2.95;81.12
83716;BME280;73698;51.138;6.950;2024-01-16T17:54:21;100321.75;;;-2.95;81.03
83716;BME280;73698;51.138;6.950;2024-01-16T17:56:46;100320.09;;;-2.99;80.11
83716;BME280;73698;51.138;6.950;2024-01-16T17:59:13;100315.75;;;-3.01;80.52
83716;BME280;73698;51.138;6.950;2024-01-16T18:01:39;100316.63;;;-3.02;80.30
83716;BME280;73698;51.138;6.950;2024-01-16T18:04:05;100298.28;;;-3.05;80.75
83716;BME280;73698;51.138;6.950;2024-01-16T18:06:34;100293.94;;;-3.08;81.22
83716;BME280;73698;51.138;6.950;2024-01-16T18:08:59;100290.50;;;-3.11;81.19
83716;BME280;73698;51.138;6.950;2024-01-16T18:11:25;100292.25;;;-3.10;81.60
83716;BME280;73698;51.138;6.950;2024-01-16T18:13:51;100287.88;;;-3.11;81.89
83716;BME280;73698;51.138;6.950;2024-01-16T18:16:16;100287.91;;;-3.13;81.45
83716;BME280;73698;51.138;6.950;2024-01-16T18:18:43;100284.47;;;-3.15;81.24
83716;BME280;73698;51.138;6.950;2024-01-16T18:21:08;100285.38;;;-3.17;81.55
83716;BME280;73698;51.138;6.950;2024-01-16T18:23:37;100290.69;;;-3.21;81.49
83716;BME280;73698;51.138;6.950;2024-01-16T18:26:03;100289.00;;;-3.25;81.53
83716;BME280;73698;51.138;6.950;2024-01-16T18:28:31;100276.81;;;-3.29;81.93
83716;BME280;73698;51.138;6.950;2024-01-16T18:30:56;100271.59;;;-3.30;81.79
83716;BME280;73698;51.138;6.950;2024-01-16T18:33:21;100273.38;;;-3.32;81.32
83716;BME280;73698;51.138;6.950;2024-01-16T18:35:47;100274.28;;;-3.35;81.65
83716;BME280;73698;51.138;6.950;2024-01-16T18:38:13;100274.38;;;-3.38;81.74
83716;BME280;73698;51.138;6.950;2024-01-16T18:40:39;100271.75;;;-3.39;81.79
83716;BME280;73698;51.138;6.950;2024-01-16T18:43:05;100260.41;;;-3.41;82.26
83716;BME280;73698;51.138;6.950;2024-01-16T18:45:33;100259.56;;;-3.42;81.72
83716;BME280;73698;51.138;6.950;2024-01-16T18:47:58;100251.63;;;-3.40;81.91
83716;BME280;73698;51.138;6.950;2024-01-16T18:50:23;100248.97;;;-3.39;82.02
83716;BME280;73698;51.138;6.950;2024-01-16T18:52:50;100239.34;;;-3.40;81.87
83716;BME280;73698;51.138;6.950;2024-01-16T18:55:17;100237.47;;;-3.33;81.59
83716;BME280;73698;51.138;6.950;2024-01-16T18:57:43;100240.03;;;-3.29;81.78
83716;BME280;73698;51.138;6.950;2024-01-16T19:00:11;100240.81;;;-3.25;81.63
83716;BME280;73698;51.138;6.950;2024-01-16T19:02:43;100245.19;;;-3.23;80.94
83716;BME280;73698;51.138;6.950;2024-01-16T19:05:13;100242.59;;;-3.26;81.31
83716;BME280;73698;51.138;6.950;2024-01-16T19:07:42;100232.09;;;-3.27;81.02
83716;BME280;73698;51.138;6.950;2024-01-16T19:10:09;100239.13;;;-3.28;81.46
83716;BME280;73698;51.138;6.950;2024-01-16T19:12:39;100245.28;;;-3.29;81.39
83716;BME280;73698;51.138;6.950;2024-01-16T19:15:05;100239.16;;;-3.29;81.34
83716;BME280;73698;51.138;6.950;2024-01-16T19:17:30;100245.28;;;-3.29;81.23
83716;BME280;73698;51.138;6.950;2024-01-16T19:19:56;100247.94;;;-3.30;80.76
83716;BME280;73698;51.138;6.950;2024-01-16T19:22:21;100244.47;;;-3.32;81.06
83716;BME280;73698;51.138;6.950;2024-01-16T19:24:47;100234.81;;;-3.30;80.91
83716;BME280;73698;51.138;6.950;2024-01-16T19:27:12;100241.84;;;-3.32;81.35
83716;BME280;73698;51.138;6.950;2024-01-16T19:29:37;100235.63;;;-3.27;80.60
83716;BME280;73698;51.138;6.950;2024-01-16T19:32:03;100229.44;;;-3.26;80.96
83716;BME280;73698;51.138;6.950;2024-01-16T19:34:28;100225.81;;;-3.18;80.65
83716;BME280;73698;51.138;6.950;2024-01-16T19:36:55;100231.94;;;-3.20;80.65
83716;BME280;73698;51.138;6.950;2024-01-16T19:39:20;100226.69;;;-3.20;80.37
83716;BME280;73698;51.138;6.950;2024-01-16T19:41:47;100214.34;;;-3.14;80.46
83716;BME280;73698;51.138;6.950;2024-01-16T19:44:12;100211.78;;;-3.19;81.19
83716;BME280;73698;51.138;6.950;2024-01-16T19:46:42;100208.44;;;-3.26;80.69
83716;BME280;73698;51.138;6.950;2024-01-16T19:49:08;100205.03;;;-3.32;81.14
83716;BME280;73698;51.138;6.950;2024-01-16T19:51:40;100205.88;;;-3.30;81.63
83716;BME280;73698;51.138;6.950;2024-01-16T19:54:05;100198.06;;;-3.33;81.35
83716;BME280;73698;51.138;6.950;2024-01-16T19:56:34;100201.59;;;-3.34;81.42
83716;BME280;73698;51.138;6.950;2024-01-16T19:59:00;100192.84;;;-3.36;80.81
83716;BME280;73698;51.138;6.950;2024-01-16T20:01:32;100183.31;;;-3.40;82.34
83716;BME280;73698;51.138;6.950;2024-01-16T20:03:58;100182.41;;;-3.39;81.88
83716;BME280;73698;51.138;6.950;2024-01-16T20:06:25;100183.34;;;-3.42;81.93
83716;BME280;73698;51.138;6.950;2024-01-16T20:08:51;100163.25;;;-3.46;82.39
83716;BME280;73698;51.138;6.950;2024-01-16T20:11:26;100168.50;;;-3.46;82.05
83716;BME280;73698;51.138;6.950;2024-01-16T20:13:52;100172.06;;;-3.49;81.71
83716;BME280;73698;51.138;6.950;2024-01-16T20:16:18;100172.03;;;-3.47;81.64
83716;BME280;73698;51.138;6.950;2024-01-16T20:18:43;100163.34;;;-3.49;82.29
83716;BME280;73698;51.138;6.950;2024-01-16T20:21:08;100168.59;;;-3.51;82.55
83716;BME280;73698;51.138;6.950;2024-01-16T20:23:35;100164.28;;;-3.53;82.49
83716;BME280;73698;51.138;6.950;2024-01-16T20:26:00;100156.47;;;-3.56;82.54
83716;BME280;73698;51.138;6.950;2024-01-16T20:28:25;100154.78;;;-3.60;82.45
83716;BME280;73698;51.138;6.950;2024-01-16T20:30:51;100155.69;;;-3.63;82.27
83716;BME280;73698;51.138;6.950;2024-01-16T20:33:16;100152.22;;;-3.63;83.11
83716;BME280;73698;51.138;6.950;2024-01-16T20:35:42;100163.56;;;-3.63;83.51
83716;BME280;73698;51.138;6.950;2024-01-16T20:38:07;100159.31;;;-3.69;83.32
83716;BME280;73698;51.138;6.950;2024-01-16T20:40:33;100168.13;;;-3.71;83.06
83716;BME280;73698;51.138;6.950;2024-01-16T20:42:58;100164.63;;;-3.73;83.31
83716;BME280;73698;51.138;6.950;2024-01-16T20:45:24;100164.75;;;-3.79;83.20
83716;BME280;73698;51.138;6.950;2024-01-16T20:47:49;100167.44;;;-3.82;83.04
83716;BME280;73698;51.138;6.950;2024-01-16T20:50:15;100171.06;;;-3.88;83.46
83716;BME280;73698;51.138;6.950;2024-01-16T20:52:40;100160.59;;;-3.93;83.26
83716;BME280;73698;51.138;6.950;2024-01-16T20:55:06;100161.56;;;-3.95;84.19
83716;BME280;73698;51.138;6.950;2024-01-16T20:57:32;100162.47;;;-3.98;83.94
83716;BME280;73698;51.138;6.950;2024-01-16T20:59:58;100160.75;;;-4.00;84.24
83716;BME280;73698;51.138;6.950;2024-01-16T21:02:23;100166.00;;;-4.00;84.70
83716;BME280;73698;51.138;6.950;2024-01-16T21:04:49;100154.53;;;-3.96;85.11
83716;BME280;73698;51.138;6.950;2024-01-16T21:07:14;100151.88;;;-3.93;84.97
83716;BME280;73698;51.138;6.950;2024-01-16T21:09:42;100156.16;;;-3.87;85.01
83716;BME280;73698;51.138;6.950;2024-01-16T21:12:07;100148.97;;;-3.78;84.79
83716;BME280;73698;51.138;6.950;2024-01-16T21:14:33;100138.31;;;-3.70;83.99
83716;BME280;73698;51.138;6.950;2024-01-16T21:16:58;100140.78;;;-3.61;84.45
83716;BME280;73698;51.138;6.950;2024-01-16T21:19:24;100131.00;;;-3.54;83.64
83716;BME280;73698;51.138;6.950;2024-01-16T21:21:49;100129.22;;;-3.52;83.25
83716;BME280;73698;51.138;6.950;2024-01-16T21:24:19;100129.09;;;-3.46;82.51
83716;BME280;73698;51.138;6.950;2024-01-16T21:26:45;100128.13;;;-3.40;82.77
83716;BME280;73698;51.138;6.950;2024-01-16T21:29:11;100130.78;;;-3.42;82.61
83716;BME280;73698;51.138;6.950;2024-01-16T21:34:10;100121.16;;;-3.43;82.30
83716;BME280;73698;51.138;6.950;2024-01-16T21:36:36;100106.34;;;-3.46;82.59
83716;BME280;73698;51.138;6.950;2024-01-16T21:39:02;100108.16;;;-3.49;83.08
83716;BME280;73698;51.138;6.950;2024-01-16T21:41:27;100096.78;;;-3.50;82.71
83716;BME280;73698;51.138;6.950;2024-01-16T21:43:52;100092.50;;;-3.55;82.59
83716;BME280;73698;51.138;6.950;2024-01-16T21:46:18;100089.16;;;-3.63;82.25
83716;BME280;73698;51.138;6.950;2024-01-16T21:48:43;100077.00;;;-3.67;82.72
83716;BME280;73698;51.138;6.950;2024-01-16T21:51:09;100076.25;;;-3.74;82.82
83716;BME280;73698;51.138;6.950;2024-01-16T21:53:35;100063.19;;;-3.79;82.85
83716;BME280;73698;51.138;6.950;2024-01-16T21:56:01;100064.16;;;-3.83;83.60
83716;BME280;73698;51.138;6.950;2024-01-16T21:58:27;100058.06;;;-3.83;83.88
83716;BME280;73698;51.138;6.950;2024-01-16T22:00:53;100063.31;;;-3.83;83.29
83716;BME280;73698;51.138;6.950;2024-01-16T22:03:18;100049.31;;;-3.84;83.18
83716;BME280;73698;51.138;6.950;2024-01-16T22:05:43;100050.28;;;-3.88;83.53
83716;BME280;73698;51.138;6.950;2024-01-16T22:08:10;100043.25;;;-3.89;82.93
83716;BME280;73698;51.138;6.950;2024-01-16T22:10:35;100037.09;;;-3.86;83.11
83716;BME280;73698;51.138;6.950;2024-01-16T22:13:01;100041.50;;;-3.87;83.27
83716;BME280;73698;51.138;6.950;2024-01-16T22:15:27;100032.81;;;-3.90;83.71
83716;BME280;73698;51.138;6.950;2024-01-16T22:17:52;100029.28;;;-3.89;82.99
83716;BME280;73698;51.138;6.950;2024-01-16T22:20:20;100025.72;;;-3.87;82.88
83716;BME280;73698;51.138;6.950;2024-01-16T22:22:45;100019.53;;;-3.84;82.73
83716;BME280;73698;51.138;6.950;2024-01-16T22:25:11;100028.31;;;-3.84;83.58
83716;BME280;73698;51.138;6.950;2024-01-16T22:27:36;100011.59;;;-3.81;82.83
83716;BME280;73698;51.138;6.950;2024-01-16T22:30:02;100011.44;;;-3.72;81.96
83716;BME280;73698;51.138;6.950;2024-01-16T22:32:27;100012.34;;;-3.75;82.07
83716;BME280;73698;51.138;6.950;2024-01-16T22:34:54;100010.56;;;-3.74;82.36
83716;BME280;73698;51.138;6.950;2024-01-16T22:37:19;100008.06;;;-3.79;82.15
83716;BME280;73698;51.138;6.950;2024-01-16T22:39:45;100002.75;;;-3.77;82.58
83716;BME280;73698;51.138;6.950;2024-01-16T22:42:10;99994.13;;;-3.82;82.65
83716;BME280;73698;51.138;6.950;2024-01-16T22:44:36;99988.81;;;-3.81;81.93
83716;BME280;73698;51.138;6.950;2024-01-16T22:47:03;99990.63;;;-3.83;82.36
83716;BME280;73698;51.138;6.950;2024-01-16T22:49:28;99993.28;;;-3.84;81.89
83716;BME280;73698;51.138;6.950;2024-01-16T22:51:54;99990.63;;;-3.83;82.43
83716;BME280;73698;51.138;6.950;2024-01-16T22:54:19;99995.03;;;-3.85;81.92
83716;BME280;73698;51.138;6.950;2024-01-16T22:56:45;99995.03;;;-3.83;82.12
83716;BME280;73698;51.138;6.950;2024-01-16T22:59:10;100000.28;;;-3.85;81.87
83716;BME280;73698;51.138;6.950;2024-01-16T23:01:36;99993.41;;;-3.90;81.93
83716;BME280;73698;51.138;6.950;2024-01-16T23:04:01;99987.34;;;-3.94;82.20
83716;BME280;73698;51.138;6.950;2024-01-16T23:06:27;99987.31;;;-3.93;82.10
83716;BME280;73698;51.138;6.950;2024-01-16T23:08:56;99982.97;;;-3.92;82.20
83716;BME280;73698;51.138;6.950;2024-01-16T23:11:22;99970.69;;;-3.93;82.07
83716;BME280;73698;51.138;6.950;2024-01-16T23:13:53;99974.22;;;-3.94;81.61
83716;BME280;73698;51.138;6.950;2024-01-16T23:16:18;99986.34;;;-3.88;81.63
83716;BME280;73698;51.138;6.950;2024-01-16T23:18:45;99982.06;;;-3.91;81.99
83716;BME280;73698;51.138;6.950;2024-01-16T23:21:14;99969.69;;;-3.86;81.25
83716;BME280;73698;51.138;6.950;2024-01-16T23:23:41;99957.41;;;-3.85;81.62
83716;BME280;73698;51.138;6.950;2024-01-16T23:26:12;99952.16;;;-3.84;81.20
83716;BME280;73698;51.138;6.950;2024-01-16T23:28:38;99944.34;;;-3.87;80.91
83716;BME280;73698;51.138;6.950;2024-01-16T23:31:05;99938.22;;;-3.87;81.54
83716;BME280;73698;51.138;6.950;2024-01-16T23:33:31;99937.38;;;-3.89;81.00
83716;BME280;73698;51.138;6.950;2024-01-16T23:35:57;99935.50;;;-3.84;81.83
83716;BME280;73698;51.138;6.950;2024-01-16T23:38:23;99926.75;;;-3.83;80.65
83716;BME280;73698;51.138;6.950;2024-01-16T23:40:48;99919.72;;;-3.83;81.57
83716;BME280;73698;51.138;6.950;2024-01-16T23:43:13;99911.00;;;-3.85;81.04
83716;BME280;73698;51.138;6.950;2024-01-16T23:45:39;99916.31;;;-3.86;81.30
83716;BME280;73698;51.138;6.950;2024-01-16T23:48:05;99909.34;;;-3.87;80.83
83716;BME280;73698;51.138;6.950;2024-01-16T23:50:30;99897.22;;;-3.95;81.27
83716;BME280;73698;51.138;6.950;2024-01-16T23:52:56;99892.78;;;-3.91;81.48
83716;BME280;73698;51.138;6.950;2024-01-16T23:55:22;99887.53;;;-3.91;80.91
83716;BME280;73698;51.138;6.950;2024-01-16T23:57:48;99884.91;;;-3.93;80.70
